Time,TemperatureF,DewpointF,PressureIn,WindDirection,WindDirectionDegrees,WindSpeedMPH,WindSpeedGustMPH,Humidity,HourlyPrecipIn,Conditions,Clouds,dailyrainin,SoftwareType,DateUTC
2013-06-28 00:07:00,78.9,76.0,29.99,SSW,199,0.0,-999.0,90,-99.99,,,0.10,weatherlink.com 1.10,2013-06-28 04:07:00,
2013-06-28 00:22:00,78.6,76.0,29.98,SSW,196,0.0,-999.0,91,-99.99,,,0.10,weatherlink.com 1.10,2013-06-28 04:22:00,
2013-06-28 00:37:00,78.5,76.0,29.98,SSW,196,0.0,-999.0,92,-99.99,,,0.10,weatherlink.com 1.10,2013-06-28 04:37:00,
2013-06-28 00:52:00,78.3,76.0,29.98,SSW,196,0.0,-999.0,92,-99.99,,,0.00,weatherlink.com 1.10,2013-06-28 04:52:00,
2013-06-28 01:07:00,78.2,76.0,29.98,SSW,196,0.0,-999.0,93,-99.99,,,0.00,weatherlink.com 1.10,2013-06-28 05:07:00,
2013-06-28 01:22:00,77.6,76.0,29.97,SSW,196,0.0,-999.0,93,-99.99,,,0.00,weatherlink.com 1.10,2013-06-28 05:22:00,
2013-06-28 01:37:00,77.6,76.0,29.97,SSW,196,0.0,-999.0,94,-99.99,,,0.00,weatherlink.com 1.10,2013-06-28 05:37:00,
2013-06-28 01:52:00,77.6,76.0,29.96,SSW,196,0.0,-999.0,94,-99.99,,,0.00,weatherlink.com 1.10,2013-06-28 05:52:00,
2013-06-28 02:07:00,77.7,76.0,29.96,SSW,196,0.0,-999.0,94,-99.99,,,0.00,weatherlink.com 1.10,2013-06-28 06:07:00,
2013-06-28 02:22:00,77.5,76.0,29.96,SSW,196,0.0,-999.0,95,-99.99,,,0.00,weatherlink.com 1.10,2013-06-28 06:22:00,
2013-06-28 02:37:00,77.4,76.0,29.96,SSW,196,0.0,-999.0,94,-99.99,,,0.00,weatherlink.com 1.10,2013-06-28 06:37:00,
2013-06-28 02:52:00,77.4,76.0,29.96,ESE,117,0.0,-999.0,94,-99.99,,,0.00,weatherlink.com 1.10,2013-06-28 06:52:00,
2013-06-28 03:07:00,76.8,75.0,29.95,SSE,159,0.0,-999.0,93,-99.99,,,0.00,weatherlink.com 1.10,2013-06-28 07:07:00,
2013-06-28 03:22:00,76.5,74.0,29.95,SSE,159,0.0,-999.0,92,-99.99,,,0.00,weatherlink.com 1.10,2013-06-28 07:22:00,
2013-06-28 03:37:00,76.3,74.0,29.95,SSE,159,0.0,-999.0,92,-99.99,,,0.00,weatherlink.com 1.10,2013-06-28 07:37:00,
2013-06-28 03:52:00,76.5,74.0,29.95,SSE,159,0.0,-999.0,92,-99.99,,,0.00,weatherlink.com 1.10,2013-06-28 07:52:00,
2013-06-28 04:07:00,76.8,75.0,29.95,SSE,159,0.0,-999.0,93,-99.99,,,0.00,weatherlink.com 1.10,2013-06-28 08:07:00,
2013-06-28 04:22:00,76.9,75.0,29.95,SSW,207,0.0,-999.0,93,-99.99,,,0.00,weatherlink.com 1.10,2013-06-28 08:22:00,
2013-06-28 04:38:00,76.4,74.0,29.96,SSW,207,0.0,-999.0,93,-99.99,,,0.00,weatherlink.com 1.10,2013-06-28 08:38:00,
2013-06-28 04:53:00,76.8,75.0,29.95,SSW,207,0.0,-999.0,94,-99.99,,,0.00,weatherlink.com 1.10,2013-06-28 08:53:00,
2013-06-28 05:08:00,76.4,75.0,29.95,SSW,207,0.0,-999.0,94,-99.99,,,0.00,weatherlink.com 1.10,2013-06-28 09:08:00,
2013-06-28 05:23:00,76.0,74.0,29.95,SSW,207,0.0,-999.0,94,-99.99,,,0.00,weatherlink.com 1.10,2013-06-28 09:23:00,
2013-06-28 05:38:00,76.3,75.0,29.95,SSW,207,0.0,-999.0,95,-99.99,,,0.00,weatherlink.com 1.10,2013-06-28 09:38:00,
2013-06-28 05:53:00,75.9,74.0,29.95,SSW,207,0.0,-999.0,95,-99.99,,,0.00,weatherlink.com 1.10,2013-06-28 09:53:00,
2013-06-28 06:08:00,75.9,74.0,29.95,SSW,207,0.0,-999.0,95,-99.99,,,0.00,weatherlink.com 1.10,2013-06-28 10:08:00,
2013-06-28 06:23:00,75.7,74.0,29.95,SSW,207,0.0,-999.0,95,-99.99,,,0.00,weatherlink.com 1.10,2013-06-28 10:23:00,
2013-06-28 06:38:00,75.2,74.0,29.96,SSW,207,0.0,-999.0,95,-99.99,,,0.00,weatherlink.com 1.10,2013-06-28 10:38:00,
2013-06-28 06:53:00,75.4,74.0,29.96,SSW,207,0.0,-999.0,95,-99.99,,,0.00,weatherlink.com 1.10,2013-06-28 10:53:00,
2013-06-28 07:08:00,76.0,75.0,29.96,SSW,207,0.0,-999.0,96,-99.99,,,0.00,weatherlink.com 1.10,2013-06-28 11:08:00,
2013-06-28 07:23:00,77.0,76.0,29.96,SSW,207,0.0,-999.0,95,-99.99,,,0.00,weatherlink.com 1.10,2013-06-28 11:23:00,
2013-06-28 07:38:00,78.0,76.0,29.96,SW,221,0.0,-999.0,94,-99.99,,,0.00,weatherlink.com 1.10,2013-06-28 11:38:00,
2013-06-28 07:53:00,80.3,78.0,29.96,SW,219,0.0,-999.0,92,-99.99,,,0.00,weatherlink.com 1.10,2013-06-28 11:53:00,
2013-06-28 08:08:00,82.4,77.0,29.96,SSW,210,0.0,-999.0,84,-99.99,,,0.00,weatherlink.com 1.10,2013-06-28 12:08:00,
2013-06-28 08:24:00,84.1,77.0,29.96,SE,146,0.0,-999.0,80,-99.99,,,0.00,weatherlink.com 1.10,2013-06-28 12:24:00,
2013-06-28 08:38:00,84.6,77.0,29.96,South,169,0.0,-999.0,78,-99.99,,,0.00,weatherlink.com 1.10,2013-06-28 12:38:00,
2013-06-28 08:53:00,85.5,78.0,29.96,South,189,0.0,-999.0,77,-99.99,,,0.00,weatherlink.com 1.10,2013-06-28 12:53:00,
2013-06-28 09:08:00,86.9,77.0,29.96,SSW,202,0.0,-999.0,73,-99.99,,,0.00,weatherlink.com 1.10,2013-06-28 13:08:00,
2013-06-28 09:23:00,87.0,77.0,29.96,SSW,202,0.0,-999.0,73,-99.99,,,0.00,weatherlink.com 1.10,2013-06-28 13:23:00,
2013-06-28 09:38:00,87.8,76.0,29.96,South,173,1.0,-999.0,69,-99.99,,,0.00,weatherlink.com 1.10,2013-06-28 13:38:00,
2013-06-28 09:53:00,88.0,76.0,29.96,SW,214,0.0,-999.0,68,-99.99,,,0.00,weatherlink.com 1.10,2013-06-28 13:53:00,
2013-06-28 10:08:00,88.8,76.0,29.96,WSW,238,0.0,-999.0,65,-99.99,,,0.00,weatherlink.com 1.10,2013-06-28 14:08:00,
2013-06-28 10:23:00,89.2,74.0,29.96,SSE,164,0.0,-999.0,62,-99.99,,,0.00,weatherlink.com 1.10,2013-06-28 14:23:00,
2013-06-28 10:38:00,90.3,76.0,29.96,WNW,300,0.0,-999.0,63,-99.99,,,0.00,weatherlink.com 1.10,2013-06-28 14:38:00,
2013-06-28 10:53:00,88.7,74.0,29.96,ESE,109,5.0,-999.0,63,-99.99,,,0.00,weatherlink.com 1.10,2013-06-28 14:53:00,
2013-06-28 11:08:00,85.4,74.0,29.96,South,187,3.0,-999.0,69,-99.99,,,0.00,weatherlink.com 1.10,2013-06-28 15:08:00,
2013-06-28 11:23:00,86.5,75.0,29.96,SE,138,6.0,-999.0,69,-99.99,,,0.00,weatherlink.com 1.10,2013-06-28 15:23:00,
2013-06-28 11:38:00,86.5,74.0,29.96,SE,144,6.0,-999.0,66,-99.99,,,0.00,weatherlink.com 1.10,2013-06-28 15:38:00,
2013-06-28 11:53:00,87.6,73.0,29.96,South,171,5.0,-999.0,63,-99.99,,,0.00,weatherlink.com 1.10,2013-06-28 15:53:00,
2013-06-28 12:08:00,89.2,73.0,29.95,SE,138,1.0,-999.0,60,-99.99,,,0.00,weatherlink.com 1.10,2013-06-28 16:08:00,
2013-06-28 12:23:00,90.2,74.0,29.94,South,172,2.0,-999.0,60,-99.99,,,0.00,weatherlink.com 1.10,2013-06-28 16:23:00,
2013-06-28 12:53:00,89.5,75.0,29.94,SSE,158,6.0,-999.0,62,-99.99,,,0.00,weatherlink.com 1.10,2013-06-28 16:53:00,
2013-06-28 13:08:00,90.7,75.0,29.94,SSW,192,6.0,-999.0,60,-99.99,,,0.00,weatherlink.com 1.10,2013-06-28 17:08:00,
2013-06-28 13:23:00,90.5,74.0,29.93,SSE,157,2.0,-999.0,58,-99.99,,,0.00,weatherlink.com 1.10,2013-06-28 17:23:00,
2013-06-28 13:38:00,90.6,75.0,29.92,SW,219,4.0,-999.0,61,-99.99,,,0.00,weatherlink.com 1.10,2013-06-28 17:38:00,
2013-06-28 13:53:00,91.9,75.0,29.92,SW,221,5.0,-999.0,58,-99.99,,,0.00,weatherlink.com 1.10,2013-06-28 17:53:00,
2013-06-28 14:08:00,92.2,76.0,29.91,SW,214,3.0,-999.0,60,-99.99,,,0.00,weatherlink.com 1.10,2013-06-28 18:08:00,
2013-06-28 14:24:00,92.8,76.0,29.90,SW,214,0.0,-999.0,59,-99.99,,,0.00,weatherlink.com 1.10,2013-06-28 18:24:00,
2013-06-28 14:39:00,92.4,78.0,29.89,SE,133,1.0,-999.0,62,-99.99,,,0.00,weatherlink.com 1.10,2013-06-28 18:39:00,
2013-06-28 14:54:00,90.4,75.0,29.90,SSW,211,4.0,-999.0,61,-99.99,,,0.00,weatherlink.com 1.10,2013-06-28 18:54:00,
2013-06-28 15:09:00,87.7,79.0,29.89,SSE,155,4.0,-999.0,74,-99.99,,,0.03,weatherlink.com 1.10,2013-06-28 19:09:00,
2013-06-28 15:24:00,85.5,78.0,29.89,SSE,149,4.0,-999.0,78,-99.99,,,0.04,weatherlink.com 1.10,2013-06-28 19:24:00,
2013-06-28 15:39:00,86.2,77.0,29.87,SSE,161,6.0,-999.0,75,-99.99,,,0.04,weatherlink.com 1.10,2013-06-28 19:39:00,
2013-06-28 15:54:00,86.5,77.0,29.87,SSW,209,1.0,-999.0,73,-99.99,,,0.04,weatherlink.com 1.10,2013-06-28 19:54:00,
2013-06-28 16:09:00,89.0,77.0,29.87,South,169,2.0,-999.0,67,-99.99,,,0.04,weatherlink.com 1.10,2013-06-28 20:09:00,
2013-06-28 16:24:00,89.7,76.0,29.86,SE,131,6.0,-999.0,65,-99.99,,,0.04,weatherlink.com 1.10,2013-06-28 20:24:00,
2013-06-28 16:39:00,89.9,77.0,29.85,SSW,202,2.0,-999.0,65,-99.99,,,0.04,weatherlink.com 1.10,2013-06-28 20:39:00,
2013-06-28 16:54:00,90.1,77.0,29.85,ENE,69,3.0,-999.0,65,-99.99,,,0.04,weatherlink.com 1.10,2013-06-28 20:54:00,
2013-06-28 17:09:00,90.2,76.0,29.85,SE,138,4.0,-999.0,64,-99.99,,,0.04,weatherlink.com 1.10,2013-06-28 21:09:00,
2013-06-28 17:24:00,90.0,76.0,29.85,South,188,8.0,-999.0,64,-99.99,,,0.04,weatherlink.com 1.10,2013-06-28 21:24:00,
2013-06-28 17:39:00,89.7,75.0,29.86,ESE,102,6.0,-999.0,63,-99.99,,,0.04,weatherlink.com 1.10,2013-06-28 21:39:00,
2013-06-28 17:54:00,87.7,75.0,29.87,South,179,4.0,-999.0,67,-99.99,,,0.04,weatherlink.com 1.10,2013-06-28 21:54:00,
2013-06-28 18:09:00,86.8,75.0,29.86,South,175,2.0,-999.0,68,-99.99,,,0.04,weatherlink.com 1.10,2013-06-28 22:09:00,
2013-06-28 18:24:00,86.1,74.0,29.85,SSE,155,9.0,-999.0,68,-99.99,,,0.04,weatherlink.com 1.10,2013-06-28 22:24:00,
2013-06-28 18:39:00,85.3,75.0,29.86,SW,219,10.0,-999.0,71,-99.99,,,0.04,weatherlink.com 1.10,2013-06-28 22:39:00,
2013-06-28 18:54:00,84.7,75.0,29.86,SE,128,6.0,-999.0,73,-99.99,,,0.04,weatherlink.com 1.10,2013-06-28 22:54:00,
2013-06-28 19:09:00,84.5,76.0,29.88,SSW,194,3.0,-999.0,75,-99.99,,,0.04,weatherlink.com 1.10,2013-06-28 23:09:00,
2013-06-28 19:24:00,84.1,75.0,29.90,SW,217,2.0,-999.0,74,-99.99,,,0.04,weatherlink.com 1.10,2013-06-28 23:24:00,
2013-06-28 19:39:00,79.0,73.0,29.91,WNW,287,3.0,-999.0,82,-99.99,,,0.04,weatherlink.com 1.10,2013-06-28 23:39:00,
2013-06-28 19:54:00,74.5,70.0,29.91,WNW,299,2.0,-999.0,85,-99.99,,,0.10,weatherlink.com 1.10,2013-06-28 23:54:00,
2013-06-28 20:09:00,73.4,70.0,29.91,West,275,1.0,-999.0,90,-99.99,,,0.13,weatherlink.com 1.10,2013-06-29 00:09:00,
2013-06-28 20:24:00,73.3,71.0,29.91,NE,36,0.0,-999.0,91,-99.99,,,0.14,weatherlink.com 1.10,2013-06-29 00:24:00,
2013-06-28 20:39:00,73.8,71.0,29.91,WNW,300,0.0,-999.0,92,-99.99,,,0.15,weatherlink.com 1.10,2013-06-29 00:39:00,
2013-06-28 20:54:00,74.2,72.0,29.91,NNE,23,0.0,-999.0,92,-99.99,,,0.15,weatherlink.com 1.10,2013-06-29 00:54:00,
2013-06-28 21:09:00,74.3,72.0,29.92,NW,314,0.0,-999.0,92,-99.99,,,0.15,weatherlink.com 1.10,2013-06-29 01:09:00,
2013-06-28 21:24:00,74.3,72.0,29.92,NW,326,0.0,-999.0,92,-99.99,,,0.16,weatherlink.com 1.10,2013-06-29 01:24:00,
2013-06-28 21:39:00,74.3,72.0,29.93,NE,49,2.0,-999.0,92,-99.99,,,0.16,weatherlink.com 1.10,2013-06-29 01:39:00,
2013-06-28 21:54:00,74.7,73.0,29.93,NNE,26,0.0,-999.0,93,-99.99,,,0.16,weatherlink.com 1.10,2013-06-29 01:54:00,
2013-06-28 22:09:00,75.2,73.0,29.93,NE,42,0.0,-999.0,94,-99.99,,,0.16,weatherlink.com 1.10,2013-06-29 02:09:00,
2013-06-28 22:24:00,75.4,74.0,29.94,NE,38,0.0,-999.0,94,-99.99,,,0.16,weatherlink.com 1.10,2013-06-29 02:24:00,
2013-06-28 22:39:00,75.5,74.0,29.95,NW,311,1.0,-999.0,94,-99.99,,,0.16,weatherlink.com 1.10,2013-06-29 02:39:00,
2013-06-28 22:54:00,75.2,73.0,29.95,West,261,0.0,-999.0,93,-99.99,,,0.16,weatherlink.com 1.10,2013-06-29 02:54:00,
2013-06-28 23:09:00,75.1,73.0,29.93,SSW,196,0.0,-999.0,93,-99.99,,,0.17,weatherlink.com 1.10,2013-06-29 03:09:00,
2013-06-28 23:24:00,75.1,73.0,29.93,South,190,2.0,-999.0,94,-99.99,,,0.18,weatherlink.com 1.10,2013-06-29 03:24:00,
2013-06-28 23:39:00,75.1,73.0,29.92,South,183,0.0,-999.0,94,-99.99,,,0.18,weatherlink.com 1.10,2013-06-29 03:39:00,
2013-06-28 23:54:00,74.9,73.0,29.92,SSW,204,1.0,-999.0,94,-99.99,,,0.18,weatherlink.com 1.10,2013-06-29 03:54:00,